Time;durP1;ratioP1;P1;durP2;ratioP2;P2;SDS_P1;SDS_P2;PMS_P1;PMS_P2;Temp;Humidity;BMP_temperature;BMP_pressure;BME280_temperature;BME280_humidity;BME280_pressure;Samples;Min_cycle;Max_cycle;Signal;HPM_P1;HPM_P2
2022/05/21 00:01:57;;;;;;;10.43;4.70;;;9.50;99.90;;;;;;5016133;28;20111;-76
2022/05/21 00:04:24;;;;;;;13.25;5.65;;;9.50;99.90;;;;;;5034201;28;20053;-76
2022/05/21 00:06:50;;;;;;;10.82;5.53;;;9.60;99.90;;;;;;5016417;28;20563;-75
2022/05/21 00:09:18;;;;;;;16.60;6.00;;;9.50;99.90;;;;;;5015331;28;20466;-77
2022/05/21 00:11:46;;;;;;;15.23;5.60;;;9.60;99.90;;;;;;5016730;28;20413;-76
2022/05/21 00:14:12;;;;;;;12.63;5.97;;;9.60;99.90;;;;;;5033454;28;20053;-75
2022/05/21 00:16:41;;;;;;;14.70;6.72;;;9.60;99.90;;;;;;5015725;28;20088;-76
2022/05/21 00:19:07;;;;;;;11.07;6.53;;;9.60;99.90;;;;;;5016071;28;20543;-76
2022/05/21 00:21:34;;;;;;;17.27;7.35;;;9.70;99.90;;;;;;5033198;28;20085;-76
2022/05/21 00:24:01;;;;;;;10.63;6.53;;;9.70;99.90;;;;;;5017680;28;20095;-75
2022/05/21 00:26:28;;;;;;;14.85;7.85;;;9.70;99.90;;;;;;5036539;28;20053;-74
2022/05/21 00:28:55;;;;;;;14.05;7.25;;;9.80;99.90;;;;;;5016516;28;20050;-75
2022/05/21 00:31:22;;;;;;;13.88;7.43;;;9.80;99.90;;;;;;5015208;28;20050;-76
2022/05/21 00:33:50;;;;;;;20.02;8.88;;;9.80;99.90;;;;;;5033965;28;20053;-75
2022/05/21 00:36:18;;;;;;;20.67;8.88;;;9.80;99.90;;;;;;5015208;28;20103;-76
2022/05/21 00:38:46;;;;;;;15.40;9.65;;;9.90;99.90;;;;;;5015422;28;20081;-76
2022/05/21 00:41:15;;;;;;;23.92;10.30;;;9.90;99.90;;;;;;5015522;28;20053;-76
2022/05/21 00:43:46;;;;;;;20.45;10.98;;;10.00;99.90;;;;;;5033171;28;20046;-76
2022/05/21 00:46:16;;;;;;;20.88;10.73;;;10.00;99.90;;;;;;5033514;28;20053;-75
2022/05/21 00:48:45;;;;;;;20.33;11.13;;;10.10;99.90;;;;;;5016147;28;20124;-75
2022/05/21 00:51:17;;;;;;;18.55;11.73;;;10.10;99.90;;;;;;5015005;28;20053;-75
2022/05/21 00:53:46;;;;;;;20.38;11.15;;;10.20;99.90;;;;;;5033492;28;20497;-76
2022/05/21 00:56:14;;;;;;;22.27;11.45;;;10.30;99.90;;;;;;5015404;28;20049;-76
2022/05/21 01:01:29;;;;;;;20.30;10.55;;;10.40;99.90;;;;;;5033298;28;20056;-76
2022/05/21 01:03:56;;;;;;;16.67;10.98;;;10.40;99.90;;;;;;5033050;28;20049;-76
2022/05/21 01:06:24;;;;;;;23.08;12.05;;;10.50;99.90;;;;;;5032994;28;20497;-75
2022/05/21 01:08:51;;;;;;;20.85;12.35;;;10.60;99.90;;;;;;5015743;28;20103;-75
2022/05/21 01:11:20;;;;;;;20.45;12.00;;;10.50;99.90;;;;;;5032152;28;20053;-75
2022/05/21 01:13:49;;;;;;;22.65;12.55;;;10.60;99.90;;;;;;5014241;28;20045;-77
2022/05/21 01:16:16;;;;;;;23.15;13.13;;;10.60;99.90;;;;;;5015560;28;20452;-76
2022/05/21 01:18:43;;;;;;;24.45;12.80;;;10.60;99.90;;;;;;5032282;28;20077;-76
2022/05/21 01:21:10;;;;;;;25.27;14.73;;;10.60;99.90;;;;;;5032583;28;20537;-76
2022/05/21 01:23:38;;;;;;;22.77;13.98;;;10.60;99.90;;;;;;5015263;28;20497;-75
2022/05/21 01:26:17;;;;;;;23.73;12.60;;;10.60;99.90;;;;;;5020188;28;20551;-76
2022/05/21 01:28:44;;;;;;;21.95;14.05;;;10.60;99.90;;;;;;5021408;28;20444;-74
2022/05/21 01:31:11;;;;;;;20.35;14.60;;;10.70;99.90;;;;;;5021620;28;20072;-76
2022/05/21 01:33:41;;;;;;;20.80;13.02;;;10.80;99.90;;;;;;5020911;28;20077;-75
2022/05/21 01:36:09;;;;;;;24.80;14.97;;;10.70;99.90;;;;;;5039739;28;20050;-74
2022/05/21 01:38:38;;;;;;;23.65;13.55;;;10.80;99.90;;;;;;5039007;28;20103;-76
2022/05/21 01:41:05;;;;;;;27.30;15.35;;;10.80;99.90;;;;;;5039496;28;20142;-74
2022/05/21 01:46:17;;;;;;;24.40;15.75;;;10.90;99.90;;;;;;5021861;28;20052;-76
2022/05/21 01:48:45;;;;;;;26.20;15.70;;;11.00;99.90;;;;;;5039698;28;20452;-76
2022/05/21 01:51:12;;;;;;;23.42;15.25;;;11.20;99.90;;;;;;5040826;28;20088;-76
2022/05/21 01:53:41;;;;;;;29.63;15.98;;;11.10;99.90;;;;;;5040881;28;20041;-76
2022/05/21 01:56:09;;;;;;;27.27;16.77;;;11.20;99.90;;;;;;5023045;28;20081;-76
2022/05/21 01:58:37;;;;;;;27.05;16.83;;;11.30;99.90;;;;;;5022236;28;20057;-76
2022/05/21 02:01:04;;;;;;;33.67;17.25;;;11.30;99.90;;;;;;5021059;28;20113;-76
2022/05/21 02:03:31;;;;;;;27.52;18.45;;;11.40;99.90;;;;;;5039138;28;20088;-75
2022/05/21 02:05:58;;;;;;;26.73;17.88;;;11.40;99.90;;;;;;5021669;28;20132;-76
2022/05/21 02:08:25;;;;;;;30.92;19.55;;;11.40;99.90;;;;;;5020672;28;20085;-76
2022/05/21 02:10:53;;;;;;;26.45;18.60;;;11.50;99.90;;;;;;5039024;28;20122;-77
2022/05/21 02:13:24;;;;;;;31.98;19.95;;;11.50;99.90;;;;;;5021568;28;20520;-76
2022/05/21 02:15:50;;;;;;;27.77;19.23;;;11.50;99.90;;;;;;5020865;28;20103;-76
2022/05/21 02:18:17;;;;;;;29.08;19.27;;;11.50;99.90;;;;;;5038840;28;20123;-76
2022/05/21 02:20:46;;;;;;;26.17;19.23;;;11.60;99.90;;;;;;5038315;28;20046;-75
2022/05/21 02:23:13;;;;;;;33.05;19.20;;;11.60;99.90;;;;;;5021083;28;20084;-77
2022/05/21 02:25:41;;;;;;;34.85;18.63;;;11.70;99.90;;;;;;5021948;28;20053;-76
2022/05/21 02:28:09;;;;;;;29.50;19.55;;;11.70;99.90;;;;;;5021062;28;20146;-76
2022/05/21 02:30:37;;;;;;;26.23;18.80;;;11.80;99.90;;;;;;5021151;28;20045;-76
2022/05/21 02:33:04;;;;;;;28.67;17.70;;;11.90;99.90;;;;;;5021692;28;20052;-76
2022/05/21 02:35:30;;;;;;;26.88;17.30;;;11.90;99.90;;;;;;5021775;28;20057;-76
2022/05/21 02:40:42;;;;;;;27.90;17.77;;;12.00;99.90;;;;;;5035805;28;20068;-75
2022/05/21 02:43:10;;;;;;;30.08;16.67;;;12.10;99.90;;;;;;5035324;28;20489;-75
2022/05/21 02:45:37;;;;;;;27.10;15.88;;;12.10;99.90;;;;;;5019273;28;20089;-77
2022/05/21 02:48:04;;;;;;;29.35;15.43;;;12.10;99.90;;;;;;5019084;28;20054;-76
2022/05/21 02:50:34;;;;;;;31.52;16.17;;;12.20;99.90;;;;;;5035092;28;20460;-75
2022/05/21 02:53:01;;;;;;;26.90;14.77;;;12.20;99.90;;;;;;5036722;28;20045;-76
2022/05/21 02:55:28;;;;;;;28.27;13.88;;;12.30;99.90;;;;;;5020491;28;20084;-75
2022/05/21 02:57:55;;;;;;;28.25;13.80;;;12.30;99.90;;;;;;5019208;28;20084;-76
2022/05/21 03:00:26;;;;;;;22.73;12.70;;;12.30;99.90;;;;;;5036950;28;20037;-76
2022/05/21 03:02:53;;;;;;;22.05;12.75;;;12.30;99.90;;;;;;5018773;28;20077;-75
2022/05/21 03:05:20;;;;;;;27.65;12.40;;;12.30;99.90;;;;;;5019242;28;20588;-75
2022/05/21 03:07:49;;;;;;;23.50;10.65;;;12.40;99.90;;;;;;5019288;28;20045;-75
2022/05/21 03:10:22;;;;;;;23.60;9.30;;;12.40;99.90;;;;;;5035691;28;20129;-76
2022/05/21 03:12:51;;;;;;;19.92;9.45;;;12.50;99.90;;;;;;5018614;28;20080;-76
2022/05/21 03:15:19;;;;;;;23.02;8.75;;;12.50;99.90;;;;;;5035803;28;20089;-76
2022/05/21 03:17:47;;;;;;;15.50;8.57;;;12.50;99.90;;;;;;5018661;28;20060;-76
2022/05/21 03:20:16;;;;;;;22.80;8.13;;;12.50;99.90;;;;;;5036445;28;20043;-76
2022/05/21 03:22:43;;;;;;;22.85;8.88;;;12.60;99.90;;;;;;5018021;28;20093;-75
2022/05/21 03:25:12;;;;;;;22.08;7.43;;;12.60;99.90;;;;;;5016627;28;20053;-75
2022/05/21 03:27:39;;;;;;;20.92;7.03;;;12.60;99.90;;;;;;5034586;28;20513;-76
2022/05/21 03:30:09;;;;;;;19.73;8.00;;;12.70;99.90;;;;;;5034563;28;20050;-76
2022/05/21 03:32:36;;;;;;;23.40;8.30;;;12.70;99.90;;;;;;5034205;28;20114;-75
2022/05/21 03:35:05;;;;;;;20.13;7.75;;;12.70;99.90;;;;;;5034282;28;20049;-76
2022/05/21 03:37:32;;;;;;;16.85;6.75;;;12.70;99.90;;;;;;5017016;28;20061;-76
2022/05/21 03:39:59;;;;;;;20.05;6.72;;;12.70;99.90;;;;;;5032949;28;20536;-75
2022/05/21 03:42:26;;;;;;;22.05;6.78;;;12.70;99.90;;;;;;5017245;28;20508;-76
2022/05/21 03:44:52;;;;;;;18.17;6.50;;;12.80;99.90;;;;;;5034505;28;20151;-76
2022/05/21 03:47:19;;;;;;;18.98;6.53;;;12.80;99.90;;;;;;5015994;28;20088;-75
2022/05/21 03:49:46;;;;;;;19.70;6.32;;;12.80;99.90;;;;;;5016450;28;20437;-76
2022/05/21 03:52:14;;;;;;;23.50;6.75;;;12.80;99.90;;;;;;5016316;28;20060;-76
2022/05/21 03:54:41;;;;;;;15.32;6.20;;;12.90;99.90;;;;;;5016268;28;20081;-77
2022/05/21 03:57:10;;;;;;;23.27;6.63;;;12.80;99.90;;;;;;5016939;28;20092;-75
2022/05/21 03:59:38;;;;;;;17.85;6.00;;;13.00;99.90;;;;;;5016247;28;20049;-77
2022/05/21 04:02:05;;;;;;;17.15;5.40;;;12.90;99.90;;;;;;5016755;28;20081;-77
2022/05/21 04:04:32;;;;;;;21.85;6.40;;;12.90;99.90;;;;;;5036337;28;20049;-76
2022/05/21 04:06:59;;;;;;;19.95;5.60;;;12.90;99.90;;;;;;5020020;28;20049;-75
2022/05/21 04:09:28;;;;;;;10.10;5.15;;;12.90;99.90;;;;;;5036395;28;20413;-76
2022/05/21 04:11:55;;;;;;;12.10;4.85;;;13.00;99.90;;;;;;5016235;28;20050;-76
2022/05/21 04:14:27;;;;;;;17.85;5.60;;;13.00;99.90;;;;;;5033438;28;20049;-77
2022/05/21 04:16:54;;;;;;;15.55;4.82;;;13.00;99.90;;;;;;5016315;28;20061;-76
2022/05/21 04:19:21;;;;;;;16.38;5.95;;;13.00;99.90;;;;;;5033196;28;20571;-76
2022/05/21 04:21:48;;;;;;;12.05;4.45;;;13.00;99.90;;;;;;5015504;28;20060;-77
2022/05/21 04:24:15;;;;;;;11.60;4.65;;;13.00;99.90;;;;;;5016189;28;20080;-77
2022/05/21 04:26:44;;;;;;;14.63;4.88;;;13.00;99.90;;;;;;5033445;28;20140;-76
2022/05/21 04:29:11;;;;;;;17.67;5.18;;;13.10;99.90;;;;;;5014554;28;20172;-76
2022/05/21 04:31:37;;;;;;;14.32;4.95;;;13.10;99.90;;;;;;5015584;28;20042;-76
2022/05/21 04:34:05;;;;;;;13.10;4.97;;;13.10;99.90;;;;;;5016090;28;20386;-76
2022/05/21 04:36:32;;;;;;;14.00;4.03;;;13.00;99.90;;;;;;5014835;28;20060;-76
2022/05/21 04:38:59;;;;;;;14.57;5.05;;;13.00;99.90;;;;;;5033708;28;20049;-76
2022/05/21 04:41:26;;;;;;;20.33;5.63;;;13.00;99.90;;;;;;5032975;28;20115;-75
2022/05/21 04:43:55;;;;;;;14.32;3.88;;;13.10;99.90;;;;;;5015321;28;20053;-75
2022/05/21 04:46:24;;;;;;;14.25;4.35;;;13.10;99.90;;;;;;5015757;28;20107;-76
2022/05/21 04:48:51;;;;;;;12.93;3.80;;;13.10;99.90;;;;;;5032864;28;20137;-75
2022/05/21 04:51:18;;;;;;;16.60;3.65;;;13.10;99.90;;;;;;5014968;28;20544;-76
2022/05/21 04:53:45;;;;;;;18.48;4.68;;;13.10;99.90;;;;;;5015902;28;20501;-76
2022/05/21 04:56:11;;;;;;;14.02;4.10;;;13.10;99.90;;;;;;5032347;28;20053;-76
2022/05/21 04:58:38;;;;;;;12.23;3.80;;;13.20;99.90;;;;;;5032898;28;20053;-76
2022/05/21 05:01:07;;;;;;;11.70;4.35;;;13.30;99.90;;;;;;5014560;28;20093;-76
2022/05/21 05:03:36;;;;;;;9.18;3.25;;;13.30;99.90;;;;;;5032595;28;20181;-76
2022/05/21 05:06:04;;;;;;;9.98;3.45;;;13.20;99.90;;;;;;5033044;28;20077;-75
2022/05/21 05:08:31;;;;;;;9.80;3.97;;;13.30;99.90;;;;;;5015691;28;20057;-75
2022/05/21 05:10:57;;;;;;;10.23;3.40;;;13.30;99.90;;;;;;5014002;28;20163;-76
2022/05/21 05:13:24;;;;;;;14.40;3.70;;;13.20;99.90;;;;;;5013492;28;20089;-75
2022/05/21 05:15:51;;;;;;;8.32;3.63;;;13.30;99.90;;;;;;5013253;28;20058;-76
2022/05/21 05:18:22;;;;;;;10.07;3.33;;;13.40;99.90;;;;;;5012408;28;20104;-75
2022/05/21 05:20:49;;;;;;;10.57;3.35;;;13.40;99.90;;;;;;4995510;28;20104;-75
2022/05/21 05:23:16;;;;;;;9.15;3.38;;;13.50;99.90;;;;;;5013300;28;20111;-76
2022/05/21 05:25:43;;;;;;;13.88;4.28;;;13.50;99.90;;;;;;5003974;28;20401;-75
2022/05/21 05:28:16;;;;;;;11.85;4.40;;;13.50;99.90;;;;;;4995690;28;20103;-75
2022/05/21 05:30:43;;;;;;;9.48;3.08;;;13.50;99.90;;;;;;4994424;28;20060;-74
2022/05/21 05:33:10;;;;;;;9.13;3.53;;;13.60;99.90;;;;;;5013124;28;20132;-76
2022/05/21 05:35:38;;;;;;;16.10;3.30;;;13.70;99.90;;;;;;4995735;28;20112;-75
2022/05/21 05:38:07;;;;;;;14.98;3.90;;;13.70;99.90;;;;;;5012625;28;20054;-75
2022/05/21 05:40:34;;;;;;;12.68;3.20;;;13.90;99.90;;;;;;5008051;28;20549;-74
2022/05/21 05:43:02;;;;;;;10.23;3.53;;;13.90;99.90;;;;;;5032823;28;20154;-75
2022/05/21 05:45:29;;;;;;;8.48;3.05;;;14.00;99.90;;;;;;5014608;28;20069;-75
2022/05/21 05:47:56;;;;;;;6.22;2.80;;;14.00;99.90;;;;;;5014818;28;20073;-75
2022/05/21 05:50:23;;;;;;;11.77;4.70;;;14.00;99.90;;;;;;5015155;28;20049;-75
2022/05/21 05:52:52;;;;;;;10.98;3.08;;;14.00;99.90;;;;;;5014742;28;20474;-75
2022/05/21 05:55:20;;;;;;;17.10;4.13;;;13.90;99.90;;;;;;5015265;28;20149;-75
2022/05/21 05:57:51;;;;;;;10.40;3.70;;;13.90;99.90;;;;;;5033294;28;20556;-76
2022/05/21 06:00:18;;;;;;;13.65;3.60;;;14.00;99.90;;;;;;5014476;28;20132;-77
2022/05/21 06:03:01;;;;;;;17.70;4.05;;;14.10;99.90;;;;;;5033320;28;20099;-75
2022/05/21 06:05:30;;;;;;;14.82;3.25;;;14.20;99.90;;;;;;5011803;28;20072;-76
2022/05/21 06:08:00;;;;;;;13.05;3.58;;;14.40;99.90;;;;;;4997006;28;20512;-75
2022/05/21 06:10:30;;;;;;;16.30;3.65;;;14.40;99.90;;;;;;5005339;28;20498;-74
2022/05/21 06:12:57;;;;;;;11.35;3.95;;;14.50;99.90;;;;;;5023564;28;20046;-75
2022/05/21 06:15:25;;;;;;;15.10;3.60;;;14.60;99.90;;;;;;5029442;28;20085;-74
2022/05/21 06:17:53;;;;;;;10.85;3.92;;;14.60;99.90;;;;;;5027812;28;20045;-75
2022/05/21 06:20:22;;;;;;;9.93;2.97;;;14.70;99.90;;;;;;5011021;28;20080;-75
2022/05/21 06:22:49;;;;;;;13.60;3.83;;;14.70;99.90;;;;;;5010843;28;20824;-74
2022/05/21 06:25:20;;;;;;;15.07;3.30;;;14.70;99.90;;;;;;5014694;28;20088;-75
2022/05/21 06:27:48;;;;;;;8.85;3.08;;;14.60;99.90;;;;;;5009732;28;20081;-74
2022/05/21 06:30:17;;;;;;;14.07;4.05;;;15.00;99.90;;;;;;5012247;28;20085;-74
2022/05/21 06:32:44;;;;;;;8.77;2.88;;;15.30;99.90;;;;;;5010601;28;20093;-74
2022/05/21 06:35:13;;;;;;;11.63;3.75;;;15.70;99.90;;;;;;5006025;28;20469;-74
2022/05/21 06:37:39;;;;;;;9.48;2.92;;;15.70;99.90;;;;;;5030512;28;20053;-75
2022/05/21 06:40:10;;;;;;;11.02;3.50;;;15.60;99.90;;;;;;5012140;28;20136;-75
2022/05/21 06:42:38;;;;;;;10.10;2.50;;;15.40;99.90;;;;;;5031487;28;20130;-76
2022/05/21 06:45:06;;;;;;;11.80;2.88;;;15.40;99.90;;;;;;5029571;28;20077;-75
2022/05/21 06:47:33;;;;;;;9.15;3.03;;;15.70;99.90;;;;;;5015097;28;20405;-76
2022/05/21 06:50:00;;;;;;;11.60;3.15;;;16.30;99.90;;;;;;5009218;28;20061;-76
2022/05/21 06:52:30;;;;;;;8.95;2.67;;;16.70;99.90;;;;;;5029069;28;20091;-76
2022/05/21 06:54:57;;;;;;;8.23;3.03;;;17.00;99.90;;;;;;5028086;28;20542;-76
2022/05/21 06:57:28;;;;;;;9.93;2.78;;;17.30;99.90;;;;;;5030098;28;20477;-77
2022/05/21 06:59:56;;;;;;;11.63;3.10;;;17.40;99.90;;;;;;5032631;28;20479;-77
2022/05/21 07:02:23;;;;;;;11.98;2.75;;;17.30;99.90;;;;;;5004604;28;20445;-76
2022/05/21 07:07:34;;;;;;;7.43;2.70;;;17.60;99.90;;;;;;5010614;28;20068;-77
2022/05/21 07:10:04;;;;;;;11.77;2.88;;;17.20;99.90;;;;;;5022284;28;20046;-76
2022/05/21 07:12:32;;;;;;;13.02;2.40;;;17.40;99.90;;;;;;5028991;28;20084;-76
2022/05/21 07:15:00;;;;;;;8.48;2.75;;;17.60;99.90;;;;;;5027499;28;20050;-74
2022/05/21 07:17:27;;;;;;;10.05;2.53;;;18.00;99.90;;;;;;5026529;28;20078;-75
2022/05/21 07:19:54;;;;;;;11.02;2.97;;;18.00;99.90;;;;;;5027070;28;20061;-75
2022/05/21 07:22:22;;;;;;;10.07;2.95;;;17.90;99.90;;;;;;5029641;28;20441;-74
2022/05/21 07:24:49;;;;;;;9.75;3.28;;;17.60;99.90;;;;;;5002354;28;20551;-76
2022/05/21 07:27:16;;;;;;;12.90;2.92;;;17.70;99.90;;;;;;5012912;28;20053;-76
2022/05/21 07:29:44;;;;;;;7.20;2.50;;;18.30;99.90;;;;;;5017364;28;20062;-76
2022/05/21 07:32:19;;;;;;;10.30;2.53;;;18.90;99.90;;;;;;4988239;28;20046;-76
2022/05/21 07:34:46;;;;;;;10.73;2.45;;;18.80;99.90;;;;;;4986542;28;20167;-76
2022/05/21 07:37:14;;;;;;;10.90;2.45;;;18.30;99.90;;;;;;4991959;28;20054;-76
2022/05/21 07:39:41;;;;;;;11.30;3.35;;;18.00;99.90;;;;;;4978862;28;20445;-76
2022/05/21 07:42:08;;;;;;;8.23;2.95;;;18.10;99.90;;;;;;4999046;28;20467;-74
2022/05/21 07:44:35;;;;;;;7.80;2.50;;;18.20;99.90;;;;;;5007945;28;20082;-76
2022/05/21 07:47:02;;;;;;;12.35;2.65;;;18.50;99.90;;;;;;5005618;28;20449;-77
2022/05/21 07:49:31;;;;;;;12.38;3.58;;;18.40;99.90;;;;;;4988421;28;20056;-76
2022/05/21 07:51:59;;;;;;;9.60;2.92;;;18.00;99.90;;;;;;4988977;28;20469;-75
2022/05/21 07:54:26;;;;;;;10.73;2.92;;;17.70;99.90;;;;;;4989605;28;20429;-76
2022/05/21 07:56:54;;;;;;;13.52;3.60;;;17.40;99.90;;;;;;5005829;28;20058;-76
2022/05/21 07:59:22;;;;;;;8.27;2.42;;;18.30;99.90;;;;;;5003773;28;20054;-75
2022/05/21 08:01:49;;;;;;;10.57;2.60;;;19.20;99.90;;;;;;4989077;28;20475;-76
2022/05/21 08:04:19;;;;;;;;;;;19.60;99.90;;;;;;4986632;28;20517;-76
2022/05/21 08:06:48;;;;;;;11.43;2.72;;;19.10;99.90;;;;;;4981793;28;20239;-76
2022/05/21 08:09:15;;;;;;;8.90;2.40;;;19.30;99.90;;;;;;5010825;28;20054;-76
2022/05/21 08:11:41;;;;;;;7.97;2.65;;;19.80;99.90;;;;;;4993424;28;20494;-76
2022/05/21 08:14:08;;;;;;;9.23;3.13;;;20.40;99.90;;;;;;4974608;28;20136;-77
2022/05/21 08:16:35;;;;;;;9.85;2.47;;;20.10;99.90;;;;;;4974740;28;20133;-77
2022/05/21 08:19:02;;;;;;;9.75;2.70;;;19.70;99.90;;;;;;4987879;28;20058;-77
2022/05/21 08:21:29;;;;;;;10.27;2.30;;;19.70;99.90;;;;;;4989704;28;20153;-76
2022/05/21 08:27:01;;;;;;;10.85;2.50;;;19.30;99.90;;;;;;5009541;28;20049;-77
2022/05/21 08:29:30;;;;;;;9.35;2.70;;;19.30;99.90;;;;;;4992273;28;20122;-76
2022/05/21 08:31:57;;;;;;;5.78;1.88;;;19.50;99.90;;;;;;4992737;28;20491;-76
2022/05/21 08:34:26;;;;;;;8.95;3.03;;;20.00;99.90;;;;;;5005768;28;20184;-76
2022/05/21 08:36:53;;;;;;;9.70;2.53;;;20.10;99.90;;;;;;5011263;28;20050;-77
2022/05/21 08:39:22;;;;;;;10.00;2.47;;;19.70;99.90;;;;;;5013052;28;20502;-76
2022/05/21 08:41:53;;;;;;;9.65;2.47;;;19.70;99.90;;;;;;5012689;28;20053;-77
2022/05/21 08:44:35;;;;;;;8.98;2.90;;;19.80;99.90;;;;;;5012540;28;20510;-77
2022/05/21 08:47:10;;;;;;;12.85;3.75;;;19.70;99.90;;;;;;5012546;28;20050;-77
2022/05/21 08:49:46;;;;;;;9.95;2.63;;;19.50;99.90;;;;;;5012814;28;20100;-77
2022/05/21 08:52:19;;;;;;;6.97;2.17;;;19.70;99.90;;;;;;5012931;28;20081;-77
2022/05/21 08:54:49;;;;;;;10.45;2.50;;;20.10;99.90;;;;;;5011831;28;20563;-77
2022/05/21 08:57:26;;;;;;;9.32;1.98;;;20.90;99.90;;;;;;5012775;28;20058;-77
2022/05/21 08:59:58;;;;;;;12.02;2.75;;;20.40;99.90;;;;;;5012279;28;20053;-77
2022/05/21 09:02:30;;;;;;;6.95;2.25;;;20.10;99.90;;;;;;5011509;28;20077;-78
2022/05/21 09:04:57;;;;;;;11.45;2.75;;;19.50;99.90;;;;;;5012625;28;20551;-78
2022/05/21 09:07:30;;;;;;;6.65;2.30;;;19.10;99.90;;;;;;5012628;28;20545;-78
2022/05/21 09:10:11;;;;;;;7.85;2.45;;;19.30;99.90;;;;;;5011862;28;20172;-77
2022/05/21 09:12:44;;;;;;;9.20;2.13;;;19.80;99.90;;;;;;5012543;28;20084;-79
2022/05/21 09:18:03;;;;;;;8.52;2.17;;;20.00;99.90;;;;;;5013185;28;20072;-78
2022/05/21 09:20:33;;;;;;;8.63;2.72;;;19.50;99.90;;;;;;5012721;28;20092;-78
2022/05/21 09:23:01;;;;;;;11.48;2.88;;;19.30;99.90;;;;;;5012335;28;20104;-78
2022/05/21 09:25:29;;;;;;;8.73;1.95;;;19.10;99.90;;;;;;5013160;28;20050;-73
2022/05/21 09:28:03;;;;;;;12.23;2.60;;;19.00;99.90;;;;;;5012803;28;20054;-77
2022/05/21 09:30:32;;;;;;;7.88;2.30;;;19.40;99.90;;;;;;5012002;28;20066;-77
2022/05/21 09:33:01;;;;;;;8.13;2.40;;;19.50;99.90;;;;;;5009088;28;20069;-76
2022/05/21 09:35:31;;;;;;;9.18;2.85;;;19.40;99.90;;;;;;5001171;28;20049;-76
2022/05/21 09:38:11;;;;;;;;;;;19.10;99.90;;;;;;4998139;28;20078;-76
2022/05/21 09:40:41;;;;;;;8.15;1.60;;;18.70;99.90;;;;;;4995297;28;19953;-76
2022/05/21 09:46:17;;;;;;;9.07;2.78;;;18.70;99.90;;;;;;4993893;28;20509;-76
2022/05/21 09:48:45;;;;;;;7.55;2.25;;;18.80;99.90;;;;;;4997347;28;20054;-76
2022/05/21 09:51:25;;;;;;;11.57;2.85;;;18.60;99.90;;;;;;5000140;28;20057;-76
2022/05/21 09:53:53;;;;;;;12.43;2.40;;;18.60;99.90;;;;;;4996045;28;20054;-77
2022/05/21 09:56:24;;;;;;;8.32;2.30;;;18.60;99.90;;;;;;5011778;28;20520;-77
2022/05/21 09:58:52;;;;;;;;;;;18.30;99.90;;;;;;5007468;28;20046;-77
2022/05/21 10:01:36;;;;;;;9.18;2.33;;;18.40;99.90;;;;;;4995909;28;19925;-77
2022/05/21 10:04:13;;;;;;;8.13;2.00;;;18.70;99.90;;;;;;5001486;28;20054;-77
2022/05/21 10:06:44;;;;;;;7.25;2.08;;;19.30;99.90;;;;;;5014940;28;20058;-76
2022/05/21 10:12:09;;;;;;;7.20;2.05;;;19.50;99.90;;;;;;4995200;28;20049;-76
2022/05/21 10:14:39;;;;;;;7.22;2.13;;;19.30;99.90;;;;;;5000010;28;20046;-78
2022/05/21 10:17:09;;;;;;;8.90;2.10;;;19.50;99.90;;;;;;4997651;28;20085;-78
2022/05/21 10:19:45;;;;;;;10.95;2.13;;;20.30;99.90;;;;;;4998131;28;20124;-76
2022/05/21 10:22:20;;;;;;;6.80;2.33;;;20.30;98.90;;;;;;5006567;28;20046;-77
2022/05/21 10:25:00;;;;;;;6.28;1.77;;;20.80;98.40;;;;;;5010212;28;20054;-77
2022/05/21 10:27:47;;;;;;;9.05;2.08;;;20.70;98.80;;;;;;4994735;28;20050;-78
2022/05/21 10:30:18;;;;;;;7.80;1.75;;;20.40;98.30;;;;;;5006796;28;20116;-77
2022/05/21 10:33:05;;;;;;;7.88;1.75;;;20.80;98.20;;;;;;4994366;28;20130;-77
2022/05/21 10:35:50;;;;;;;6.57;2.10;;;21.10;97.00;;;;;;4994004;28;20553;-78
2022/05/21 10:38:34;;;;;;;7.85;2.25;;;21.40;96.70;;;;;;4996934;28;20070;-77
2022/05/21 10:41:04;;;;;;;6.07;2.30;;;21.50;95.30;;;;;;4997617;28;20453;-78
2022/05/21 10:43:38;;;;;;;;;;;21.40;96.90;;;;;;5000335;28;20050;-77
2022/05/21 10:46:15;;;;;;;6.63;1.90;;;21.20;96.20;;;;;;4999571;28;20002;-77
2022/05/21 10:49:19;;;;;;;4.93;1.70;;;20.90;95.00;;;;;;5000953;28;20058;-78
2022/05/21 10:51:53;;;;;;;5.65;1.70;;;20.70;96.10;;;;;;4997180;28;20106;-76
2022/05/21 10:54:37;;;;;;;5.78;1.60;;;19.90;97.30;;;;;;5014117;28;20096;-78
2022/05/21 10:57:17;;;;;;;7.05;1.95;;;20.40;98.20;;;;;;4999069;28;20058;-77
2022/05/21 11:00:01;;;;;;;6.75;1.70;;;20.20;96.90;;;;;;5002347;28;20108;-77
2022/05/21 11:03:01;;;;;;;5.18;1.60;;;20.40;98.20;;;;;;4996457;28;20081;-79
2022/05/21 11:06:00;;;;;;;7.63;1.92;;;20.60;97.50;;;;;;4994031;28;20108;-79
2022/05/21 11:08:33;;;;;;;7.43;2.22;;;21.00;97.70;;;;;;5009057;28;20054;-78
2022/05/21 11:11:05;;;;;;;5.50;1.88;;;21.90;97.20;;;;;;5008129;28;20054;-77
2022/05/21 11:13:37;;;;;;;5.35;1.50;;;22.40;95.40;;;;;;4997835;28;20077;-79
2022/05/21 11:16:12;;;;;;;5.85;1.98;;;23.20;93.30;;;;;;5001250;28;20096;-79
2022/05/21 11:18:44;;;;;;;6.90;2.05;;;23.50;92.50;;;;;;5007423;28;20398;-79
2022/05/21 11:21:19;;;;;;;5.97;1.80;;;23.50;90.70;;;;;;5013311;28;20088;-79
2022/05/21 11:23:56;;;;;;;6.93;2.13;;;22.80;90.50;;;;;;5013329;28;20050;-78
2022/05/21 11:26:31;;;;;;;5.65;1.63;;;22.30;91.20;;;;;;4996244;28;20078;-76
2022/05/21 11:29:02;;;;;;;4.80;1.63;;;22.50;91.10;;;;;;5002939;28;20124;-75
2022/05/21 11:37:23;;;;;;;6.32;1.75;;;23.70;90.20;;;;;;5008553;28;20060;-76
2022/05/21 11:39:51;;;;;;;4.97;1.80;;;23.30;90.00;;;;;;5005679;28;20112;-77
2022/05/21 11:42:22;;;;;;;6.57;2.05;;;23.60;90.20;;;;;;5019825;28;20049;-77
2022/05/21 11:44:59;;;;;;;5.50;1.73;;;23.70;89.30;;;;;;4995316;28;20124;-78
2022/05/21 11:47:54;;;;;;;10.73;2.38;;;23.60;89.30;;;;;;4997078;28;20057;-78
2022/05/21 11:50:31;;;;;;;7.60;2.35;;;23.00;88.50;;;;;;5013681;28;20108;-78
2022/05/21 11:53:09;;;;;;;5.65;2.30;;;22.50;90.40;;;;;;4999521;28;20120;-78
2022/05/21 11:56:13;;;;;;;7.32;2.30;;;22.20;90.00;;;;;;5024291;28;20535;-78
2022/05/21 11:59:17;;;;;;;5.68;1.60;;;21.90;90.70;;;;;;5020367;28;20414;-78
2022/05/21 12:01:55;;;;;;;10.38;2.35;;;21.30;91.00;;;;;;5006857;28;20139;-78
2022/05/21 12:04:50;;;;;;;8.48;2.65;;;21.20;91.90;;;;;;5028971;28;20056;-78
2022/05/21 12:07:56;;;;;;;9.80;2.40;;;21.40;92.50;;;;;;4999036;28;20045;-76
2022/05/21 12:10:27;;;;;;;7.53;2.67;;;20.90;91.90;;;;;;5014043;28;20438;-76
2022/05/21 12:13:06;;;;;;;8.82;2.10;;;21.00;92.90;;;;;;5007392;28;20086;-76
2022/05/21 12:15:39;;;;;;;7.03;1.60;;;21.20;92.40;;;;;;5013111;28;20490;-77
2022/05/21 12:18:27;;;;;;;6.70;1.92;;;21.60;91.50;;;;;;5013627;28;20112;-75
2022/05/21 12:20:56;;;;;;;9.50;2.10;;;22.20;91.30;;;;;;4996353;28;20050;-79
2022/05/21 12:23:56;;;;;;;9.32;1.73;;;21.90;90.80;;;;;;5012885;28;20085;-79
2022/05/21 12:26:23;;;;;;;;;;;21.80;90.40;;;;;;4999714;28;20490;-78
2022/05/21 12:29:00;;;;;;;7.80;2.10;;;22.00;90.10;;;;;;5012974;28;19925;-77
2022/05/21 12:31:30;;;;;;;7.32;1.40;;;21.70;90.00;;;;;;4996306;28;20054;-79
2022/05/21 12:34:39;;;;;;;4.50;1.55;;;21.70;90.40;;;;;;5013967;28;20050;-80
2022/05/21 12:37:12;;;;;;;5.70;1.80;;;21.40;87.90;;;;;;5014804;28;20054;-79
2022/05/21 12:39:51;;;;;;;9.50;2.03;;;21.10;90.80;;;;;;5014436;28;20421;-77
2022/05/21 12:42:24;;;;;;;5.82;1.55;;;21.80;90.70;;;;;;5014368;28;20492;-78
2022/05/21 12:44:51;;;;;;;6.57;1.65;;;22.40;90.00;;;;;;5014897;28;20108;-77
2022/05/21 12:47:26;;;;;;;3.85;1.23;;;23.30;88.80;;;;;;5007393;28;20080;-78
2022/05/21 12:49:53;;;;;;;5.40;1.80;;;24.00;87.00;;;;;;5034279;28;20057;-79
2022/05/21 12:52:26;;;;;;;8.10;1.90;;;24.40;85.60;;;;;;5016365;28;20452;-78
2022/05/21 12:55:28;;;;;;;6.75;1.50;;;25.00;80.50;;;;;;5033689;28;20114;-79
2022/05/21 12:57:58;;;;;;;6.45;2.28;;;24.70;80.30;;;;;;5011508;28;20081;-78
2022/05/21 13:00:28;;;;;;;4.47;1.50;;;23.70;81.50;;;;;;5016488;28;20091;-78
2022/05/21 13:02:56;;;;;;;3.42;1.92;;;23.00;82.00;;;;;;5015279;28;20058;-79
2022/05/21 13:05:27;;;;;;;5.53;1.60;;;22.70;83.70;;;;;;5016305;28;20084;-80
2022/05/21 13:08:01;;;;;;;4.47;1.20;;;22.60;84.20;;;;;;5033818;28;20049;-79
2022/05/21 13:10:29;;;;;;;4.70;1.40;;;22.70;83.30;;;;;;5029927;28;20171;-79
2022/05/21 13:13:00;;;;;;;3.17;1.35;;;22.00;84.00;;;;;;5030284;28;20123;-79
2022/05/21 13:15:32;;;;;;;6.78;1.63;;;21.90;83.70;;;;;;5015570;28;20107;-79
2022/05/21 13:18:07;;;;;;;4.85;1.95;;;21.70;85.10;;;;;;5034016;28;20076;-79
2022/05/21 13:20:40;;;;;;;5.05;1.38;;;22.10;84.90;;;;;;5033034;28;20058;-79
2022/05/21 13:23:26;;;;;;;5.00;1.70;;;22.00;85.20;;;;;;5033037;28;20163;-78
2022/05/21 13:25:54;;;;;;;6.25;1.92;;;22.10;84.90;;;;;;5033107;28;20103;-79
2022/05/21 13:28:22;;;;;;;4.30;1.27;;;22.00;86.40;;;;;;5032589;28;20072;-79